Terminal Aerodrome Forecast
Issued by NWS

Home | Current Version | Previous Version | Text Only | Print | Product List | Glossary On
Versions: 1 2 3 4 5 6 7 8 9 10 11 12
022
FTUS45 KVEF 181731
TAFEED
TAF
KEED 181731Z 1818/1918 02018G28KT P6SM SKC
     FM190200 34009KT P6SM SKC
     FM191700 36010KT P6SM SKC=

USA.gov is the U.S. government's official web portal to all federal, state and local government web resources and services.